地図

経路データ

SID SEASON NUMBER BASIN SUBBASIN NAME ISO_TIME NATURE LAT LON WMO_WIND WMO_PRES WMO_AGENCY TRACK_TYPE DIST2LAND LANDFALL IFLAG USA_AGENCY USA_ATCF_ID USA_LAT USA_LON USA_RECORD USA_STATUS USA_WIND USA_PRES USA_SSHS USA_R34_NE USA_R34_SE USA_R34_SW USA_R34_NW USA_R50_NE USA_R50_SE USA_R50_SW USA_R50_NW USA_R64_NE USA_R64_SE USA_R64_SW USA_R64_NW USA_POCI USA_ROCI USA_RMW USA_EYE TOKYO_LAT TOKYO_LON TOKYO_GRADE TOKYO_WIND TOKYO_PRES TOKYO_R50_DIR TOKYO_R50_LONG TOKYO_R50_SHORT TOKYO_R30_DIR TOKYO_R30_LONG TOKYO_R30_SHORT TOKYO_LAND CMA_LAT CMA_LON CMA_CAT CMA_WIND CMA_PRES HKO_LAT HKO_LON HKO_CAT HKO_WIND HKO_PRES NEWDELHI_LAT NEWDELHI_LON NEWDELHI_GRADE NEWDELHI_WIND NEWDELHI_PRES NEWDELHI_CI NEWDELHI_DP NEWDELHI_POCI REUNION_LAT REUNION_LON REUNION_TYPE REUNION_WIND REUNION_PRES REUNION_TNUM REUNION_CI REUNION_RMW REUNION_R34_NE REUNION_R34_SE REUNION_R34_SW REUNION_R34_NW REUNION_R50_NE REUNION_R50_SE REUNION_R50_SW REUNION_R50_NW REUNION_R64_NE REUNION_R64_SE REUNION_R64_SW REUNION_R64_NW BOM_LAT BOM_LON BOM_TYPE BOM_WIND BOM_PRES BOM_TNUM BOM_CI BOM_RMW BOM_R34_NE BOM_R34_SE BOM_R34_SW BOM_R34_NW BOM_R50_NE BOM_R50_SE BOM_R50_SW BOM_R50_NW BOM_R64_NE BOM_R64_SE BOM_R64_SW BOM_R64_NW BOM_ROCI BOM_POCI BOM_EYE BOM_POS_METHOD BOM_PRES_METHOD NADI_LAT NADI_LON NADI_CAT NADI_WIND NADI_PRES WELLINGTON_LAT WELLINGTON_LON WELLINGTON_WIND WELLINGTON_PRES DS824_LAT DS824_LON DS824_STAGE DS824_WIND DS824_PRES TD9636_LAT TD9636_LON TD9636_STAGE TD9636_WIND TD9636_PRES TD9635_LAT TD9635_LON TD9635_WIND TD9635_PRES TD9635_ROCI NEUMANN_LAT NEUMANN_LON NEUMANN_CLASS NEUMANN_WIND NEUMANN_PRES MLC_LAT MLC_LON MLC_CLASS MLC_WIND MLC_PRES USA_GUST BOM_GUST BOM_GUST_PER REUNION_GUST REUNION_GUST_PER USA_SEAHGT USA_SEARAD_NE USA_SEARAD_SE USA_SEARAD_SW USA_SEARAD_NW STORM_SPEED STORM_DIR
1962020S12123 1962 5 SI WA NOT_NAMED 1962-01-20 00:00:00 NR -12.1000 123.100 main 195 195 O_____________ jtwc_sh SH101962 -12.1000 123.100 -1 13 276
1962020S12123 1962 5 SI WA NOT_NAMED 1962-01-20 01:00:00 NR -12.0756 122.878 1002 bom main 201 201 P_____O_______ SH101962 -12.1135 123.017 -1 -12.0000 122.600 1002 8 266
1962020S12123 1962 5 SI WA NOT_NAMED 1962-01-20 03:00:00 NR -12.1283 122.681 main 209 209 P_____P_______ SH101962 -12.1425 122.850 -1 -12.1070 122.428 6 252
1962020S12123 1962 5 SI WA NOT_NAMED 1962-01-20 06:00:00 TS -12.2250 122.414 main 234 234 O_____P_____O_ jtwc_sh SH101962 -12.2000 122.600 -1 -12.2667 122.171 -12.2000 122.400 TC 25 1002 6 247
1962020S12123 1962 5 SI WA NOT_NAMED 1962-01-20 09:00:00 TS -12.3539 122.136 main 271 271 P_____P_____P_ SH101962 -12.2850 122.350 -1 -12.4247 121.915 -12.3500 122.150 TC 25 1002 6 243
1962020S12123 1962 5 SI WA NOT_NAMED 1962-01-20 12:00:00 TS -12.4927 121.886 main 288 284 O_____P_____O_ jtwc_sh SH101962 -12.4000 122.100 -1 -12.5800 121.660 -12.5000 121.900 TC 25 1002 6 239
1962020S12123 1962 5 SI WA NOT_NAMED 1962-01-20 15:00:00 TS -12.6439 121.639 main 284 284 P_____P_____P_ SH101962 -12.5500 121.858 -1 -12.7317 121.409 -12.6500 121.650 TC 25 1002 6 238
1962020S12123 1962 5 SI WA NOT_NAMED 1962-01-20 18:00:00 TS -12.7930 121.387 main 296 293 O_____P_____O_ jtwc_sh SH101962 -12.7000 121.600 -1 -12.8789 121.161 -12.8000 121.400 TC 25 1002 6 241
1962020S12123 1962 5 SI WA NOT_NAMED 1962-01-20 21:00:00 TS -12.9261 121.122 main 298 298 P_____P_____P_ SH101962 -12.8000 121.300 -1 -13.0208 120.917 -12.9575 121.150 TC 25 1002 6 243
1962020S12123 1962 5 SI WA NOT_NAMED 1962-01-21 00:00:00 TS -13.0558 120.847 main 315 315 O_____P__O__O_ jtwc_sh SH101962 -12.9000 121.000 -1 -13.1564 120.678 -13.1000 120.700 TC 25 1002 -13.1000 120.900 TC 25 1002 6 244
1962020S12123 1962 5 SI WA NOT_NAMED 1962-01-21 01:00:00 TS -13.1014 120.755 1002 bom main 315 314 P_____O__P__P_ SH101962 -12.9469 120.911 -1 -13.2000 120.600 1002 -13.1432 120.627 TC -13.1364 120.817 TC 25 1001 6 242
1962020S12123 1962 5 SI WA NOT_NAMED 1962-01-21 03:00:00 TS -13.1885 120.587 main 324 324 P_____P__P__P_ SH101962 -13.0500 120.743 -1 -13.2849 120.446 -13.2294 120.482 TC -13.2000 120.650 TC 25 1001 5 242
1962020S12123 1962 5 SI WA NOT_NAMED 1962-01-21 06:00:00 TS -13.3163 120.345 main 336 336 O_____P__P__O_ jtwc_sh SH101962 -13.2000 120.500 -1 -13.4067 120.218 -13.3583 120.263 TC -13.3000 120.400 TC 25 1001 5 242
1962020S12123 1962 5 SI WA NOT_NAMED 1962-01-21 09:00:00 TS -13.4398 120.106 main 349 349 P_____P__P__P_ SH101962 -13.3000 120.242 -1 -13.5231 119.994 -13.4863 120.043 TC -13.4500 120.143 TC 25 1001 5 242
1962020S12123 1962 5 SI WA NOT_NAMED 1962-01-21 12:00:00 TS -13.5621 119.873 main 375 375 O_____P__P__O_ jtwc_sh SH101962 -13.4000 120.000 -1 -13.6352 119.773 -13.6130 119.821 TC -13.6000 119.900 TC 25 1001 5 241
1962020S12123 1962 5 SI WA NOT_NAMED 1962-01-21 15:00:00 TS -13.6830 119.662 main 390 390 P_____P__P__P_ SH101962 -13.5424 119.800 -1 -13.7442 119.552 -13.7381 119.596 TC -13.7074 119.700 TC 27 1000 5 240
1962020S12123 1962 5 SI WA NOT_NAMED 1962-01-21 18:00:00 TS -13.8031 119.450 main 409 409 O_____P__P__O_ jtwc_sh SH101962 -13.7000 119.600 -1 -13.8512 119.330 -13.8612 119.368 TC -13.8000 119.500 TC 30 1000 5 241
1962020S12123 1962 5 SI WA NOT_NAMED 1962-01-21 21:00:00 TS -13.9224 119.210 main 427 427 P_____P__P__P_ SH101962 -13.8500 119.350 -1 -13.9575 119.106 -13.9820 119.136 TC -13.9000 119.250 TC 30 1000 5 243
1962020S12123 1962 5 SI WA NOT_NAMED 1962-01-22 00:00:00 TS -14.0410 118.969 main 445 445 O_____P__O__O_ jtwc_sh SH101962 -14.0000 119.100 -1 -14.0642 118.877 -14.1000 118.900 TC 30 1000 -14.0000 119.000 TC 30 1000 5 243
1962020S12123 1962 5 SI WA NOT_NAMED 1962-01-22 01:00:00 TS -14.0792 118.895 1000 bom main 459 459 P_____O__P__P_ SH101962 -14.0473 119.030 -1 -14.1000 118.800 1000 -14.1387 118.820 TC -14.0307 118.930 TC 30 1000 5 241
1962020S12123 1962 5 SI WA NOT_NAMED 1962-01-22 03:00:00 TS -14.1559 118.750 main 476 476 P_____P__P__P_ SH101962 -14.1424 118.900 -1 -14.1737 118.640 -14.2151 118.659 TC -14.0924 118.800 TC 30 1000 5 241
1962020S12123 1962 5 SI WA NOT_NAMED 1962-01-22 06:00:00 TS -14.2780 118.528 main 494 494 O_____P__P__O_ jtwc_sh SH101962 -14.3000 118.700 -1 -14.2840 118.396 -14.3280 118.414 TC -14.2000 118.600 TC 30 1000 5 240
1962020S12123 1962 5 SI WA NOT_NAMED 1962-01-22 09:00:00 TS -14.4209 118.282 main 513 513 P_____P__P__P_ SH101962 -14.5000 118.458 -1 -14.3944 118.149 -14.4392 118.166 TC -14.3500 118.358 TC 30 1000 6 239
1962020S12123 1962 5 SI WA NOT_NAMED 1962-01-22 12:00:00 TS -14.5637 118.028 main 538 538 O_____P__P__O_ jtwc_sh SH101962 -14.7000 118.200 -1 -14.5052 117.898 -14.5498 117.914 TC -14.5000 118.100 TC 30 1000 6 242
1962020S12123 1962 5 SI WA NOT_NAMED 1962-01-22 15:00:00 TS -14.6855 117.779 main 551 551 P_____P__P__P_ SH101962 -14.8574 117.957 -1 -14.6168 117.646 -14.6603 117.662 TC -14.6075 117.850 TC 30 1000 5 244
1962020S12123 1962 5 SI WA NOT_NAMED 1962-01-22 18:00:00 TS -14.8003 117.525 main 574 574 O_____P__P__O_ jtwc_sh SH101962 -15.0000 117.700 -1 -14.7297 117.392 -14.7717 117.408 TC -14.7000 117.600 TC 30 1000 6 245
1962020S12123 1962 5 SI WA NOT_NAMED 1962-01-22 21:00:00 TS -14.9197 117.259 main 588 588 P_____P__P__P_ SH101962 -15.1575 117.393 -1 -14.8441 117.138 -14.8846 117.154 TC -14.7925 117.350 TC 30 1000 6 245
1962020S12123 1962 5 SI WA NOT_NAMED 1962-01-23 00:00:00 TS -15.0402 116.996 main 612 602 O_____P__O__O_ jtwc_sh SH101962 -15.3000 117.100 -1 -14.9606 116.884 -15.0000 116.900 TC 30 1000 -14.9000 117.100 TC 30 1000 6 244
1962020S12123 1962 5 SI WA NOT_NAMED 1962-01-23 01:00:00 TS -15.0801 116.914 1000 bom main 606 597 P_____O__P__P_ SH101962 -15.3390 117.022 -1 -15.0000 116.800 1000 -15.0345 116.817 TC -14.9469 117.017 TC 30 999 5 244
1962020S12123 1962 5 SI WA NOT_NAMED 1962-01-23 03:00:00 TS -15.1570 116.754 main 597 592 P_____P__P__P_ SH101962 -15.4074 116.885 -1 -15.0676 116.633 -15.1029 116.650 TC -15.0500 116.850 TC 30 999 5 244
1962020S12123 1962 5 SI WA NOT_NAMED 1962-01-23 06:00:00 TS -15.2685 116.520 main 593 583 O_____P__P__O_ jtwc_sh SH101962 -15.5000 116.700 -1 -15.1681 116.382 -15.2059 116.399 TC -15.2000 116.600 TC 30 999 5 245
1962020S12123 1962 5 SI WA NOT_NAMED 1962-01-23 09:00:00 TS -15.3688 116.285 main 583 574 P_____P__P__P_ SH101962 -15.5925 116.507 -1 -15.2708 116.132 -15.3121 116.149 TC -15.3000 116.350 TC 32 998 5 246
1962020S12123 1962 5 SI WA NOT_NAMED 1962-01-23 12:00:00 TS -15.4759 116.045 main 575 565 O_____P__P__O_ jtwc_sh SH101962 -15.7000 116.300 -1 -15.3791 115.882 -15.4246 115.899 TC -15.4000 116.100 TC 35 997 5 243
1962020S12123 1962 5 SI WA NOT_NAMED 1962-01-23 15:00:00 TS -15.6089 115.799 main 567 558 P_____P__P__P_ SH101962 -15.8425 116.065 -1 -15.4967 115.632 -15.5465 115.649 TC -15.5500 115.850 TC 35 996 6 240
1962020S12123 1962 5 SI WA NOT_NAMED 1962-01-23 18:00:00 TS -15.7520 115.545 main 551 546 O_____P__P__O_ jtwc_sh SH101962 -16.0000 115.800 -1 -15.6269 115.382 -15.6809 115.399 TC -15.7000 115.600 TC 35 996 6 241
1962020S12123 1962 5 SI WA NOT_NAMED 1962-01-23 21:00:00 TS -15.8867 115.285 main 546 538 P_____P__P__P_ SH101962 -16.1500 115.507 -1 -15.7734 115.132 -15.8311 115.149 TC -15.7925 115.350 TC 37 995 6 241
1962020S12123 1962 5 SI WA NOT_NAMED 1962-01-24 00:00:00 TS -16.0349 115.021 main 545 534 O_____P__O__O_ jtwc_sh SH101962 -16.3000 115.200 -1 -15.9396 114.883 -16.0000 114.900 TC 40 995 -15.9000 115.100 TC 40 995 6 239
1962020S12123 1962 5 SI WA NOT_NAMED 1962-01-24 01:00:00 TS -16.0912 114.932 995 bom main 538 531 P_____O__P__P_ SH101962 -16.3447 115.100 -1 -16.0000 114.800 995 -16.0676 114.810 TC -15.9526 115.017 TC 40 994 6 235
1962020S12123 1962 5 SI WA NOT_NAMED 1962-01-24 03:00:00 TS -16.2173 114.750 main 535 519 P_____P__P__P_ SH101962 -16.4350 114.900 -1 -16.1455 114.619 -16.2111 114.630 TC -16.0775 114.850 TC 42 993 7 232
1962020S12123 1962 5 SI WA NOT_NAMED 1962-01-24 06:00:00 TS -16.4320 114.475 main 524 509 O_____P__P__O_ jtwc_sh SH101962 -16.6000 114.600 -1 -16.3848 114.345 -16.4431 114.357 TC -16.3000 114.600 TC 45 992 7 229
1962020S12123 1962 5 SI WA NOT_NAMED 1962-01-24 09:00:00 TS -16.6792 114.200 main 509 502 P_____P__P__P_ SH101962 -16.8425 114.293 -1 -16.6424 114.070 -16.6893 114.085 TC -16.5425 114.350 TC 47 990 7 226
1962020S12123 1962 5 SI WA NOT_NAMED 1962-01-24 12:00:00 TS -16.9383 113.930 main 508 490 O_____P__P__O_ jtwc_sh SH101962 -17.1000 114.000 -1 -16.9103 113.800 -16.9430 113.820 TC -16.8000 114.100 TC 50 988 7 225
1962020S12123 1962 5 SI WA NOT_NAMED 1962-01-24 15:00:00 TS -17.1821 113.670 main 490 483 P_____P__P__P_ SH101962 -17.3000 113.727 -1 -17.1807 113.540 -17.1976 113.564 TC -17.0500 113.850 TC 52 986 7 225
1962020S12123 1962 5 SI WA NOT_NAMED 1962-01-24 18:00:00 TS -17.4231 113.429 main 489 474 O_____P__P__O_ jtwc_sh SH101962 -17.5000 113.500 -1 -17.4459 113.294 -17.4463 113.322 TC -17.3000 113.600 TC 55 985 7 222
1962020S12123 1962 5 SI WA NOT_NAMED 1962-01-24 21:00:00 TS -17.6776 113.207 main 474 457 P_____P__P__P_ SH101962 -17.7725 113.328 -1 -17.6979 113.066 -17.6827 113.100 TC -17.5575 113.335 TC 57 983 6 219
1962020S12123 1962 5 SI WA NOT_NAMED 1962-01-25 00:00:00 TS -17.9072 113.015 main 459 448 O_____P__O__O_ jtwc_sh SH101962 -18.0000 113.200 -1 -17.9290 112.862 -17.9000 112.900 TC 60 980 -17.8000 113.100 TC 60 981 6 219
1962020S12123 1962 5 SI WA NOT_NAMED 1962-01-25 01:00:00 TS -17.9675 112.962 980 bom main 448 440 P_____O__P__P_ SH101962 -18.0369 113.161 -1 -18.0000 112.800 980 4 -17.9553 112.849 TC -17.8776 113.036 TC 60 980 4 221
1962020S12123 1962 5 SI WA NOT_NAMED 1962-01-25 03:00:00 TS -18.0644 112.872 main 440 432 P_____P__P__P_ SH101962 -18.0725 113.092 -1 -18.1040 112.709 -18.0586 112.758 TC -18.0225 112.927 TC 60 980 3 221
1962020S12123 1962 5 SI WA NOT_NAMED 1962-01-25 06:00:00 TS -18.1845 112.760 main 432 424 O_____P__P__O_ jtwc_sh SH101962 -18.1000 113.000 -1 -18.2392 112.599 -18.1987 112.642 TC -18.2000 112.800 TC 60 980 3 221
1962020S12123 1962 5 SI WA NOT_NAMED 1962-01-25 09:00:00 TS -18.2919 112.664 main 424 417 P_____P__P__P_ SH101962 -18.1775 112.907 -1 -18.3563 112.511 -18.3264 112.544 TC -18.3075 112.692 TC 60 980 3 219
1962020S12123 1962 5 SI WA NOT_NAMED 1962-01-25 12:00:00 TS -18.4028 112.572 main 417 411 O_____P__P__O_ jtwc_sh SH101962 -18.3000 112.800 -1 -18.4633 112.435 -18.4481 112.454 TC -18.4000 112.600 TC 60 980 3 216
1962020S12123 1962 5 SI WA NOT_NAMED 1962-01-25 15:00:00 TS -18.5432 112.472 main 411 394 P_____P__P__P_ SH101962 -18.4850 112.665 -1 -18.5679 112.361 -18.5701 112.364 TC -18.5500 112.500 TC 60 980 4 215
1962020S12123 1962 5 SI WA NOT_NAMED 1962-01-25 18:00:00 TS -18.6942 112.361 main 394 389 O_____P__P__O_ jtwc_sh SH101962 -18.7000 112.500 -1 -18.6780 112.280 -18.6986 112.264 TC -18.7000 112.400 TC 60 980 4 217
1962020S12123 1962 5 SI WA NOT_NAMED 1962-01-25 21:00:00 TS -18.8315 112.239 main 394 379 P_____P__P__P_ SH101962 -18.8925 112.307 -1 -18.8014 112.180 -18.8398 112.146 TC -18.7924 112.322 TC 60 980 4 222
1962020S12123 1962 5 SI WA NOT_NAMED 1962-01-26 00:00:00 TS -18.9865 112.088 main 379 379 O_____P__O__O_ jtwc_sh SH101962 -19.1000 112.100 -1 -18.9458 112.051 -19.0000 112.000 TC 60 980 -18.9000 112.200 TC 60 980 4 223
1962020S12123 1962 5 SI WA NOT_NAMED 1962-01-26 01:00:00 TS -19.0486 112.025 980 bom main 385 372 P_____O__P__P_ SH101962 -19.1776 112.036 -1 -19.0000 112.000 980 -19.0643 111.929 TC -18.9526 112.134 TC 60 980 6 224
1962020S12123 1962 5 SI WA NOT_NAMED 1962-01-26 03:00:00 TS -19.1882 111.877 main 372 367 P_____P__P__P_ SH101962 -19.3425 111.907 -1 -19.1336 111.851 -19.1990 111.777 TC -19.0775 111.973 TC 60 980 6 225
1962020S12123 1962 5 SI WA NOT_NAMED 1962-01-26 06:00:00 TS -19.4168 111.631 main 374 365 O_____P__P__O_ jtwc_sh SH101962 -19.6000 111.700 -1 -19.3524 111.598 -19.4146 111.526 TC -19.3000 111.700 TC 60 980 7 225
1962020S12123 1962 5 SI WA NOT_NAMED 1962-01-26 09:00:00 TS -19.6565 111.373 main 365 365 P_____P__P__P_ SH101962 -19.8500 111.457 -1 -19.5895 111.320 -19.6440 111.256 TC -19.5424 111.457 TC 60 980 7 226
1962020S12123 1962 5 SI WA NOT_NAMED 1962-01-26 12:00:00 TS -19.9063 111.100 main 375 375 O_____P__P__O_ jtwc_sh SH101962 -20.1000 111.200 -1 -19.8409 111.026 -19.8843 110.975 TC -19.8000 111.200 TC 60 981 7 226
1962020S12123 1962 5 SI WA NOT_NAMED 1962-01-26 15:00:00 TS -20.1588 110.818 main 382 382 P_____P__P__P_ SH101962 -20.3499 110.957 -1 -20.1027 110.724 -20.1327 110.690 TC -20.0500 110.900 TC 60 981 7 226
1962020S12123 1962 5 SI WA NOT_NAMED 1962-01-26 18:00:00 TS -20.4143 110.534 main 399 394 O_____P__P__O_ jtwc_sh SH101962 -20.6000 110.700 -1 -20.3708 110.427 -20.3866 110.410 TC -20.3000 110.600 TC 60 982 7 226
1962020S12123 1962 5 SI WA NOT_NAMED 1962-01-26 21:00:00 TS -20.6749 110.253 main 401 401 P_____P__P__P_ SH101962 -20.8651 110.393 -1 -20.6415 110.142 -20.6432 110.144 TC -20.5500 110.335 TC 60 982 7 224
1962020S12123 1962 5 SI WA NOT_NAMED 1962-01-27 00:00:00 TS -20.9278 109.995 main 417 412 O_____P__O__O_ jtwc_sh SH101962 -21.1000 110.100 -1 -20.9111 109.880 -20.9000 109.900 TC 55 983 -20.8000 110.100 TC 60 982 7 223
1962020S12123 1962 5 SI WA NOT_NAMED 1962-01-27 01:00:00 TS -21.0072 109.919 983 bom main 421 416 P_____O__P__P_ SH101962 -21.1588 110.019 -1 -21.0000 109.800 983 -20.9866 109.831 TC -20.8833 110.025 TC 59 982 6 220
1962020S12123 1962 5 SI WA NOT_NAMED 1962-01-27 03:00:00 TS -21.1620 109.782 main 422 422 P_____P__P__P_ SH101962 -21.2574 109.877 -1 -21.1785 109.667 -21.1621 109.700 TC -21.0500 109.885 TC 57 982 6 217
1962020S12123 1962 5 SI WA NOT_NAMED 1962-01-27 06:00:00 TS -21.3944 109.602 main 433 430 O_____P__P__O_ jtwc_sh SH101962 -21.4000 109.700 -1 -21.4492 109.488 -21.4286 109.518 TC -21.3000 109.700 TC 55 983 6 214
1962020S12123 1962 5 SI WA NOT_NAMED 1962-01-27 09:00:00 TS -21.6338 109.440 main 446 441 P_____P__P__P_ SH101962 -21.5700 109.542 -1 -21.7198 109.329 -21.6955 109.353 TC -21.5500 109.535 TC 55 983 6 210
1962020S12123 1962 5 SI WA NOT_NAMED 1962-01-27 12:00:00 TS -21.8864 109.297 main 449 447 O_____P__P__O_ jtwc_sh SH101962 -21.8000 109.400 -1 -21.9865 109.188 -21.9591 109.202 TC -21.8000 109.400 TC 55 984 6 206
1962020S12123 1962 5 SI WA NOT_NAMED 1962-01-27 15:00:00 TS -22.1651 109.165 main 454 454 P_____P__P__P_ SH101962 -22.1500 109.235 -1 -22.2452 109.061 -22.2152 109.063 TC -22.0500 109.300 TC 55 984 6 203
1962020S12123 1962 5 SI WA NOT_NAMED 1962-01-27 18:00:00 TS -22.4381 109.045 main 472 472 O_____P__P__O_ jtwc_sh SH101962 -22.5000 109.100 -1 -22.4922 108.945 -22.4601 108.934 TC -22.3000 109.200 TC 55 985 6 203
1962020S12123 1962 5 SI WA NOT_NAMED 1962-01-27 21:00:00 TS -22.6751 108.934 main 482 482 P_____P__P__P_ SH101962 -22.7300 109.035 -1 -22.7233 108.837 -22.6896 108.814 TC -22.5575 109.050 TC 55 985 5 204
1962020S12123 1962 5 SI WA NOT_NAMED 1962-01-28 00:00:00 TS -22.8837 108.833 main 492 492 O_____P__O__O_ jtwc_sh SH101962 -22.9000 109.000 -1 -22.9346 108.734 -22.9000 108.700 TC 50 987 -22.8000 108.900 TC 55 986 5 205
1962020S12123 1962 5 SI WA NOT_NAMED 1962-01-28 01:00:00 TS -22.9490 108.800 987 bom main 492 489 P_____O__P__P_ SH101962 -22.9557 108.983 -1 -23.0000 108.700 987 -22.9626 108.657 TC -22.8776 108.861 TC 54 986 4 205
1962020S12123 1962 5 SI WA NOT_NAMED 1962-01-28 03:00:00 TS -23.0695 108.733 main 497 495 P_____P__P__P_ SH101962 -23.0575 108.950 -1 -23.1168 108.618 -23.0811 108.573 TC -23.0225 108.792 TC 52 986 4 208
1962020S12123 1962 5 SI WA NOT_NAMED 1962-01-28 06:00:00 TS -23.2293 108.638 main 505 500 O_____P__P__O_ jtwc_sh SH101962 -23.2000 108.900 -1 -23.2737 108.500 -23.2435 108.454 TC -23.2000 108.700 TC 50 987 3 210
1962020S12123 1962 5 SI WA NOT_NAMED 1962-01-28 09:00:00 TS -23.3650 108.547 main 510 507 P_____P__P__P_ SH101962 -23.3500 108.857 -1 -23.4122 108.387 -23.3904 108.343 TC -23.3075 108.600 TC 50 987 3 212
1962020S12123 1962 5 SI WA NOT_NAMED 1962-01-28 12:00:00 TS -23.4902 108.455 main 507 507 O_____P__P__O_ jtwc_sh SH101962 -23.5000 108.800 -1 -23.5361 108.281 -23.5247 108.239 TC -23.4000 108.500 TC 50 988 3 214
1962020S12123 1962 5 SI WA NOT_NAMED 1962-01-28 15:00:00 TS -23.6248 108.356 main 515 515 P_____P__P__P_ SH101962 -23.6500 108.700 -1 -23.6493 108.181 -23.6498 108.143 TC -23.5500 108.400 TC 50 988 3 214
1962020S12123 1962 5 SI WA NOT_NAMED 1962-01-28 18:00:00 TS -23.7561 108.261 main 521 521 O_____P__P__O_ jtwc_sh SH101962 -23.8000 108.600 -1 -23.7558 108.088 -23.7686 108.054 TC -23.7000 108.300 TC 50 989 3 213
1962020S12123 1962 5 SI WA NOT_NAMED 1962-01-28 21:00:00 TS -23.8753 108.180 main 530 530 P_____P__P__P_ SH101962 -23.9575 108.542 -1 -23.8595 108.002 -23.8843 107.973 TC -23.8000 108.200 TC 50 989 3 211
1962020S12123 1962 5 SI WA NOT_NAMED 1962-01-29 00:00:00 TS -23.9910 108.106 main 539 539 O_____P__O__O_ jtwc_sh SH101962 -24.1000 108.500 -1 -23.9642 107.924 -24.0000 107.900 TC 45 990 -23.9000 108.100 TC 50 989 3 210
1962020S12123 1962 5 SI WA NOT_NAMED 1962-01-29 01:00:00 TS -24.0331 108.086 990 bom main 539 538 P_____O__P__P_ SH101962 -24.1417 108.483 -1 -24.0000 107.900 990 -24.0437 107.895 TC -23.9469 108.064 TC 49 989 3 200
1962020S12123 1962 5 SI WA NOT_NAMED 1962-01-29 03:00:00 TS -24.1198 108.058 main 538 538 P_____P__P__P_ SH101962 -24.2150 108.450 -1 -24.0838 107.896 -24.1305 107.893 TC -24.0500 107.993 TC 47 989 3 195
1962020S12123 1962 5 SI WA NOT_NAMED 1962-01-29 06:00:00 TS -24.2422 108.027 main 547 546 O_____P__P__O_ jtwc_sh SH101962 -24.3000 108.400 -1 -24.2097 107.905 -24.2590 107.903 TC -24.2000 107.900 TC 45 990 2 191
1962020S12123 1962 5 SI WA NOT_NAMED 1962-01-29 09:00:00 TS -24.3428 108.007 main 546 546 P_____P__P__P_ SH101962 -24.3500 108.350 -1 -24.3355 107.922 -24.3858 107.915 TC -24.3000 107.842 TC 45 990 2 192
1962020S12123 1962 5 SI WA NOT_NAMED 1962-01-29 12:00:00 TS -24.4431 107.986 main 546 546 O_____P__P__O_ jtwc_sh SH101962 -24.4000 108.300 -1 -24.4613 107.930 -24.5110 107.914 TC -24.4000 107.800 TC 45 991 2 189
1962020S12123 1962 5 SI WA NOT_NAMED 1962-01-29 15:00:00 TS -24.5641 107.954 main 546 546 P_____P__P__P_ SH101962 -24.4850 108.265 -1 -24.5867 107.915 -24.6349 107.887 TC -24.5500 107.750 TC 45 991 3 198
1962020S12123 1962 5 SI WA NOT_NAMED 1962-01-29 18:00:00 TS -24.6923 107.895 main 556 556 O_____P__P__O_ jtwc_sh SH101962 -24.6000 108.200 -1 -24.7117 107.862 -24.7576 107.818 TC -24.7000 107.700 TC 45 992 3 207
1962020S12123 1962 5 SI WA NOT_NAMED 1962-01-29 21:00:00 TS -24.8125 107.809 main 567 567 P_____P__P__P_ SH101962 -24.7274 108.095 -1 -24.8359 107.754 -24.8793 107.694 TC -24.8074 107.695 TC 42 992 3 223
1962020S12123 1962 5 SI WA NOT_NAMED 1962-01-30 00:00:00 TS -24.9398 107.644 main 587 584 O_____P__O__O_ jtwc_sh SH101962 -24.9000 107.900 -1 -24.9592 107.577 -25.0000 107.500 TC 40 994 -24.9000 107.600 TC 40 993 4 232
1962020S12123 1962 5 SI WA NOT_NAMED 1962-01-30 01:00:00 TS -24.9850 107.564 994 bom main 584 584 P_____O__P__P_ SH101962 -24.9693 107.814 -1 -25.0000 107.500 994 -25.0400 107.417 TC -24.9307 107.523 TC 40 993 6 241
1962020S12123 1962 5 SI WA NOT_NAMED 1962-01-30 03:00:00 TS -25.0801 107.364 main 601 601 P_____P__P__P_ SH101962 -25.1274 107.602 -1 -25.0810 107.317 -25.1196 107.225 TC -24.9925 107.310 TC 40 993 7 244
1962020S12123 1962 5 SI WA NOT_NAMED 1962-01-30 06:00:00 TS -25.2347 106.988 main 638 638 O_____P__P__O_ jtwc_sh SH101962 -25.4000 107.200 -1 -25.2011 106.974 -25.2377 106.876 TC -25.1000 106.900 TC 40 994 8 246
1962020S12123 1962 5 SI WA NOT_NAMED 1962-01-30 09:00:00 TS -25.4113 106.556 main 674 674 P_____P__P__P_ SH101962 -25.7225 106.730 -1 -25.3189 106.560 -25.3541 106.463 TC -25.2499 106.473 TC 40 994 9 249
1962020S12123 1962 5 SI WA NOT_NAMED 1962-01-30 12:00:00 TS -25.5474 106.062 main 723 723 O_____P__P__O_ jtwc_sh SH101962 -26.0000 106.200 -1 -25.4342 106.086 -25.4684 105.995 TC -25.4000 106.000 TC 40 995 9 257
1962020S12123 1962 5 SI WA NOT_NAMED 1962-01-30 15:00:00 TS -25.6302 105.537 main 781 781 P_____P__P__P_ SH101962 -26.1429 105.652 -1 -25.5468 105.561 -25.5802 105.485 TC -25.5074 105.507 TC 37 995 10 261
1962020S12123 1962 5 SI WA NOT_NAMED 1962-01-30 18:00:00 TS -25.6994 104.993 main 830 830 O_____P__P__O_ jtwc_sh SH101962 -26.2000 105.100 -1 -25.6563 104.999 -25.6894 104.942 TC -25.6000 105.000 TC 35 996 10 263
1962020S12123 1962 5 SI WA NOT_NAMED 1962-01-30 21:00:00 TS -25.7537 104.425 main 889 889 ______P__P__P_ SH101962 -1 -25.7627 104.409 -25.7960 104.377 TC -25.6978 104.498 TC 35 996 10 261
1962020S12123 1962 5 SI WA NOT_NAMED 1962-01-31 00:00:00 TS -25.8581 103.852 main 938 938 ______P__O__O_ -1 -25.8661 103.803 -25.9000 103.800 TC 35 997 -25.8000 104.000 TC 35 996 11 259
1962020S12123 1962 5 SI WA NOT_NAMED 1962-01-31 01:00:00 NR -25.9000 103.600 997 bom main 968 ______O_______ -1 -25.9000 103.600 997 TC TC 14 260

IBTrACS Databaseについて

本データベースは、米国NOAAが公開する1842年以降の世界の熱帯低気圧のベストトラックデータアーカイブInternational Best Track Archive for Climate Stewardship (IBTrACS)を、ウェブで閲覧しやすい形式に変換したものです。

最終更新日:2021-12-06